createdAt,value
2023-05-24T00:06:30.914Z,-52
2023-05-24T00:16:37.705Z,-52
2023-05-24T00:26:44.389Z,-52
2023-05-24T00:36:51.080Z,-54
2023-05-24T00:46:57.836Z,-51
2023-05-24T00:57:04.591Z,-52
2023-05-24T01:07:11.311Z,-51
2023-05-24T01:17:18.032Z,-55
2023-05-24T01:27:24.798Z,-51
2023-05-24T01:37:31.473Z,-47
2023-05-24T01:47:38.261Z,-53
2023-05-24T01:57:44.947Z,-53
2023-05-24T02:07:51.680Z,-53
2023-05-24T02:17:58.458Z,-53
2023-05-24T02:28:05.119Z,-50
2023-05-24T02:38:11.841Z,-52
2023-05-24T02:48:18.549Z,-51
2023-05-24T02:58:25.266Z,-51
2023-05-24T03:08:32.019Z,-52
2023-05-24T03:18:38.755Z,-54
2023-05-24T03:28:45.456Z,-50
2023-05-24T03:38:52.198Z,-52
2023-05-24T03:48:58.918Z,-70
2023-05-24T03:59:05.620Z,-65
2023-05-24T04:09:12.353Z,-70
2023-05-24T04:19:19.055Z,-67
2023-05-24T04:29:25.799Z,-70
2023-05-24T04:39:32.545Z,-60
2023-05-24T04:49:39.251Z,-69
2023-05-24T04:59:45.966Z,-65
2023-05-24T05:09:53.926Z,-53
2023-05-24T05:20:00.660Z,-60
2023-05-24T05:30:07.363Z,-67
2023-05-24T05:40:14.132Z,-59
2023-05-24T05:50:20.809Z,-54
2023-05-24T06:00:27.561Z,-53
2023-05-24T06:10:34.258Z,-58
2023-05-24T06:30:47.886Z,-54
2023-05-24T06:40:54.432Z,-54
2023-05-24T06:51:01.183Z,-52
2023-05-24T07:01:07.992Z,-52
2023-05-24T07:11:14.650Z,-54
2023-05-24T07:21:21.349Z,-54
2023-05-24T07:31:28.061Z,-49
2023-05-24T07:41:34.808Z,-53
2023-05-24T08:01:48.237Z,-51
2023-05-24T08:11:54.960Z,-52
2023-05-24T08:22:01.698Z,-53
2023-05-24T08:32:08.455Z,-52
2023-05-24T08:42:15.111Z,-51
2023-05-24T08:52:25.980Z,-53
2023-05-24T09:02:29.817Z,-57
2023-05-24T09:22:43.268Z,-55
2023-05-24T09:32:50.024Z,-54
2023-05-24T09:42:56.708Z,-52
2023-05-24T09:53:03.441Z,-57
2023-05-24T10:13:16.892Z,-58
2023-05-24T10:23:23.606Z,-55
2023-05-24T10:33:30.327Z,-58
2023-05-24T10:43:37.106Z,-56
2023-05-24T10:53:43.767Z,-53
2023-05-24T11:03:51.757Z,-53
2023-05-24T11:13:58.462Z,-53
2023-05-24T11:24:05.183Z,-57
2023-05-24T11:34:11.927Z,-69
2023-05-24T11:44:19.870Z,-79
2023-05-24T11:54:26.578Z,-71
2023-05-24T12:04:33.391Z,-78
2023-05-24T12:14:40.122Z,-71
2023-05-24T12:24:46.770Z,-65
2023-05-24T12:34:53.485Z,-67
2023-05-24T12:45:00.207Z,-65
2023-05-24T12:55:06.929Z,-77
2023-05-24T13:05:13.711Z,-64
2023-05-24T13:15:20.389Z,-63
2023-05-24T13:25:27.205Z,-76
2023-05-24T13:35:33.840Z,-62
2023-05-24T13:45:40.531Z,-59
2023-05-24T13:55:47.280Z,-66
2023-05-24T14:05:54.074Z,-67
2023-05-24T14:16:00.762Z,-71
2023-05-24T14:26:07.454Z,-61
2023-05-24T14:36:14.201Z,-60
2023-05-24T14:46:20.936Z,-64
2023-05-24T14:56:27.640Z,-63
2023-05-24T15:16:41.109Z,-57
2023-05-24T15:26:49.029Z,-63
2023-05-24T15:36:55.763Z,-64
2023-05-24T15:47:02.573Z,-65
2023-05-24T15:57:09.226Z,-61
2023-05-24T16:07:15.920Z,-64
2023-05-24T16:17:22.677Z,-59
2023-05-24T16:27:29.374Z,-58
2023-05-24T16:37:36.101Z,-60
2023-05-24T16:47:42.950Z,-63
2023-05-24T16:57:49.554Z,-59
2023-05-24T17:07:56.291Z,-61
2023-05-24T17:18:03.035Z,-60
2023-05-24T17:28:09.718Z,-61
2023-05-24T17:38:16.464Z,-58
2023-05-24T17:48:23.167Z,-60
2023-05-24T17:58:29.910Z,-59
2023-05-24T18:08:36.648Z,-64
2023-05-24T18:18:44.578Z,-58
2023-05-24T18:28:51.295Z,-57
2023-05-24T18:38:58.029Z,-60
2023-05-24T18:49:04.759Z,-60
2023-05-24T18:59:12.787Z,-60
2023-05-24T19:09:19.440Z,-63
2023-05-24T19:19:26.141Z,-59
2023-05-24T19:29:32.882Z,-60
2023-05-24T19:39:39.601Z,-59
2023-05-24T19:49:46.321Z,-61
2023-05-24T19:59:53.096Z,-59
2023-05-24T20:09:59.783Z,-61
2023-05-24T20:20:06.519Z,-59
2023-05-24T20:30:13.200Z,-59
2023-05-24T20:40:19.951Z,-60
2023-05-24T20:50:26.662Z,-63
2023-05-24T21:10:41.349Z,-59
2023-05-24T21:20:48.088Z,-58
2023-05-24T21:30:54.841Z,-60
2023-05-24T21:41:01.511Z,-59
2023-05-24T21:51:08.232Z,-63
2023-05-24T22:01:14.983Z,-59
2023-05-24T22:11:21.685Z,-63
2023-05-24T22:31:35.192Z,-58
2023-05-24T22:41:43.090Z,-60
2023-05-24T22:51:49.828Z,-60
2023-05-24T23:01:56.659Z,-58
2023-05-24T23:12:03.296Z,-60
2023-05-24T23:22:09.994Z,-58
2023-05-24T23:32:16.722Z,-61
2023-05-24T23:42:23.451Z,-59
2023-05-24T23:52:30.181Z,-60
